sensor_id;sensor_type;location;lat;lon;timestamp;pressure;altitude;pressure_sealevel;temperature;humidity
77482;BME280;66582;43.004;-75.010;2023-06-19T00:01:25;99953.93;;;24.36;46.34
77482;BME280;66582;43.004;-75.010;2023-06-19T00:03:49;99955.12;;;23.67;46.92
77482;BME280;66582;43.004;-75.010;2023-06-19T00:06:14;99956.37;;;23.51;46.09
77482;BME280;66582;43.004;-75.010;2023-06-19T00:08:39;99959.42;;;23.50;47.33
77482;BME280;66582;43.004;-75.010;2023-06-19T00:11:05;99959.69;;;23.67;47.14
77482;BME280;66582;43.004;-75.010;2023-06-19T00:13:31;99953.59;;;23.31;46.51
77482;BME280;66582;43.004;-75.010;2023-06-19T00:15:55;99955.78;;;22.92;46.94
77482;BME280;66582;43.004;-75.010;2023-06-19T00:18:20;99959.06;;;23.15;46.43
77482;BME280;66582;43.004;-75.010;2023-06-19T00:20:46;99963.19;;;22.90;47.03
77482;BME280;66582;43.004;-75.010;2023-06-19T00:23:11;99972.62;;;22.79;47.21
77482;BME280;66582;43.004;-75.010;2023-06-19T00:25:36;99975.92;;;22.84;46.43
77482;BME280;66582;43.004;-75.010;2023-06-19T00:28:01;99973.85;;;23.55;46.05
77482;BME280;66582;43.004;-75.010;2023-06-19T00:30:26;99967.80;;;23.95;44.57
77482;BME280;66582;43.004;-75.010;2023-06-19T00:32:52;99967.39;;;22.96;45.36
77482;BME280;66582;43.004;-75.010;2023-06-19T00:35:18;99967.49;;;23.40;45.88
77482;BME280;66582;43.004;-75.010;2023-06-19T00:37:43;99969.22;;;22.49;48.18
77482;BME280;66582;43.004;-75.010;2023-06-19T00:40:09;99969.07;;;22.71;46.40
77482;BME280;66582;43.004;-75.010;2023-06-19T00:42:32;99968.99;;;23.61;44.69
77482;BME280;66582;43.004;-75.010;2023-06-19T00:44:57;99974.50;;;22.98;45.57
77482;BME280;66582;43.004;-75.010;2023-06-19T00:47:22;99974.76;;;24.05;44.08
77482;BME280;66582;43.004;-75.010;2023-06-19T00:49:47;99973.06;;;23.90;43.67
77482;BME280;66582;43.004;-75.010;2023-06-19T00:52:13;99994.07;;;21.13;49.17
77482;BME280;66582;43.004;-75.010;2023-06-19T00:54:38;99996.38;;;22.91;46.86
77482;BME280;66582;43.004;-75.010;2023-06-19T00:57:03;100002.56;;;23.56;46.07
77482;BME280;66582;43.004;-75.010;2023-06-19T00:59:28;100012.11;;;21.34;51.90
77482;BME280;66582;43.004;-75.010;2023-06-19T01:01:53;100015.11;;;19.03;60.57
77482;BME280;66582;43.004;-75.010;2023-06-19T01:04:19;100012.23;;;19.65;60.05
77482;BME280;66582;43.004;-75.010;2023-06-19T01:06:50;100017.03;;;21.55;53.88
77482;BME280;66582;43.004;-75.010;2023-06-19T01:09:11;100020.23;;;21.87;52.28
77482;BME280;66582;43.004;-75.010;2023-06-19T01:11:39;100026.76;;;21.05;54.90
77482;BME280;66582;43.004;-75.010;2023-06-19T01:14:03;100035.54;;;21.67;52.34
77482;BME280;66582;43.004;-75.010;2023-06-19T01:16:26;100036.07;;;22.63;49.64
77482;BME280;66582;43.004;-75.010;2023-06-19T01:18:52;100047.86;;;17.25;64.45
77482;BME280;66582;43.004;-75.010;2023-06-19T01:21:17;100038.32;;;19.26;59.59
77482;BME280;66582;43.004;-75.010;2023-06-19T01:23:43;100048.44;;;16.55;66.79
77482;BME280;66582;43.004;-75.010;2023-06-19T01:26:09;100044.62;;;17.46;69.53
77482;BME280;66582;43.004;-75.010;2023-06-19T01:28:34;100038.88;;;17.78;69.67
77482;BME280;66582;43.004;-75.010;2023-06-19T01:31:01;100041.95;;;14.67;82.77
77482;BME280;66582;43.004;-75.010;2023-06-19T01:33:27;100042.12;;;14.14;94.15
77482;BME280;66582;43.004;-75.010;2023-06-19T01:35:49;100042.37;;;13.67;100.00
77482;BME280;66582;43.004;-75.010;2023-06-19T01:38:15;100036.19;;;14.69;99.00
77482;BME280;66582;43.004;-75.010;2023-06-19T01:40:40;100035.82;;;16.49;86.13
77482;BME280;66582;43.004;-75.010;2023-06-19T01:43:05;100035.03;;;17.75;76.16
77482;BME280;66582;43.004;-75.010;2023-06-19T01:45:31;100046.78;;;15.05;86.60
77482;BME280;66582;43.004;-75.010;2023-06-19T01:47:54;100052.58;;;15.23;91.98
77482;BME280;66582;43.004;-75.010;2023-06-19T01:50:21;100058.29;;;13.74;100.00
77482;BME280;66582;43.004;-75.010;2023-06-19T01:52:45;100062.66;;;14.02;99.74
77482;BME280;66582;43.004;-75.010;2023-06-19T01:55:10;100053.15;;;16.34;88.78
77482;BME280;66582;43.004;-75.010;2023-06-19T01:57:36;100059.04;;;15.30;89.55
77482;BME280;66582;43.004;-75.010;2023-06-19T02:00:00;100066.85;;;14.90;94.80
77482;BME280;66582;43.004;-75.010;2023-06-19T02:02:26;100062.08;;;16.20;86.49
77482;BME280;66582;43.004;-75.010;2023-06-19T02:04:52;100056.57;;;15.42;87.27
77482;BME280;66582;43.004;-75.010;2023-06-19T02:07:16;100053.56;;;17.02;79.33
77482;BME280;66582;43.004;-75.010;2023-06-19T02:09:42;100062.80;;;15.18;87.73
77482;BME280;66582;43.004;-75.010;2023-06-19T02:12:07;100060.77;;;16.98;82.33
77482;BME280;66582;43.004;-75.010;2023-06-19T02:14:32;100064.46;;;17.07;77.78
77482;BME280;66582;43.004;-75.010;2023-06-19T02:16:56;100069.20;;;16.78;78.27
77482;BME280;66582;43.004;-75.010;2023-06-19T02:19:22;100073.71;;;15.46;87.53
77482;BME280;66582;43.004;-75.010;2023-06-19T02:21:47;100079.16;;;13.04;100.00
77482;BME280;66582;43.004;-75.010;2023-06-19T02:24:12;100075.75;;;14.72;97.78
77482;BME280;66582;43.004;-75.010;2023-06-19T02:26:38;100082.55;;;14.27;100.00
77482;BME280;66582;43.004;-75.010;2023-06-19T02:29:03;100082.34;;;14.68;94.74
77482;BME280;66582;43.004;-75.010;2023-06-19T02:31:29;100083.15;;;13.77;100.00
77482;BME280;66582;43.004;-75.010;2023-06-19T02:33:52;100078.81;;;12.79;100.00
77482;BME280;66582;43.004;-75.010;2023-06-19T02:36:18;100076.91;;;13.37;100.00
77482;BME280;66582;43.004;-75.010;2023-06-19T02:38:43;100078.26;;;13.07;100.00
77482;BME280;66582;43.004;-75.010;2023-06-19T02:41:08;100089.02;;;13.49;100.00
77482;BME280;66582;43.004;-75.010;2023-06-19T02:43:34;100094.59;;;13.21;100.00
77482;BME280;66582;43.004;-75.010;2023-06-19T02:45:59;100097.25;;;13.62;100.00
77482;BME280;66582;43.004;-75.010;2023-06-19T02:48:25;100100.24;;;13.31;100.00
77482;BME280;66582;43.004;-75.010;2023-06-19T02:50:50;100095.46;;;15.16;97.23
77482;BME280;66582;43.004;-75.010;2023-06-19T02:53:14;100106.78;;;14.38;100.00
77482;BME280;66582;43.004;-75.010;2023-06-19T02:55:41;100108.14;;;14.92;97.12
77482;BME280;66582;43.004;-75.010;2023-06-19T02:58:06;100113.95;;;13.82;96.97
77482;BME280;66582;43.004;-75.010;2023-06-19T03:00:32;100116.65;;;15.50;93.56
77482;BME280;66582;43.004;-75.010;2023-06-19T03:02:56;100124.36;;;13.88;97.44
77482;BME280;66582;43.004;-75.010;2023-06-19T03:05:21;100117.16;;;15.39;91.87
77482;BME280;66582;43.004;-75.010;2023-06-19T03:07:47;100117.34;;;16.15;86.76
77482;BME280;66582;43.004;-75.010;2023-06-19T03:10:12;100120.62;;;17.17;82.04
77482;BME280;66582;43.004;-75.010;2023-06-19T03:12:36;100118.70;;;17.50;80.68
77482;BME280;66582;43.004;-75.010;2023-06-19T03:15:01;100118.20;;;16.33;81.58
77482;BME280;66582;43.004;-75.010;2023-06-19T03:17:27;100122.51;;;15.80;86.32
77482;BME280;66582;43.004;-75.010;2023-06-19T03:19:53;100121.31;;;16.45;84.27
77482;BME280;66582;43.004;-75.010;2023-06-19T03:22:19;100125.46;;;16.02;84.65
77482;BME280;66582;43.004;-75.010;2023-06-19T03:24:43;100130.25;;;15.89;81.66
77482;BME280;66582;43.004;-75.010;2023-06-19T03:27:09;100130.06;;;16.87;77.20
77482;BME280;66582;43.004;-75.010;2023-06-19T03:29:33;100129.13;;;17.44;75.03
77482;BME280;66582;43.004;-75.010;2023-06-19T03:31:58;100136.37;;;14.07;91.56
77482;BME280;66582;43.004;-75.010;2023-06-19T03:34:23;100135.65;;;12.60;100.00
77482;BME280;66582;43.004;-75.010;2023-06-19T03:36:53;100127.73;;;14.59;95.53
77482;BME280;66582;43.004;-75.010;2023-06-19T03:39:14;100136.42;;;12.02;100.00
77482;BME280;66582;43.004;-75.010;2023-06-19T03:41:39;100146.41;;;11.81;100.00
77482;BME280;66582;43.004;-75.010;2023-06-19T03:44:06;100139.23;;;15.14;97.37
77482;BME280;66582;43.004;-75.010;2023-06-19T03:46:31;100146.54;;;12.41;100.00
77482;BME280;66582;43.004;-75.010;2023-06-19T03:48:55;100147.13;;;11.76;100.00
77482;BME280;66582;43.004;-75.010;2023-06-19T03:51:20;100139.21;;;12.36;100.00
77482;BME280;66582;43.004;-75.010;2023-06-19T03:53:45;100147.71;;;10.88;100.00
77482;BME280;66582;43.004;-75.010;2023-06-19T03:56:11;100146.71;;;11.57;100.00
77482;BME280;66582;43.004;-75.010;2023-06-19T03:58:36;100141.80;;;12.31;100.00
77482;BME280;66582;43.004;-75.010;2023-06-19T04:01:02;100136.52;;;12.54;100.00
77482;BME280;66582;43.004;-75.010;2023-06-19T04:03:27;100146.88;;;11.40;100.00
77482;BME280;66582;43.004;-75.010;2023-06-19T04:05:53;100152.51;;;11.75;100.00
77482;BME280;66582;43.004;-75.010;2023-06-19T04:08:18;100157.47;;;14.68;100.00
77482;BME280;66582;43.004;-75.010;2023-06-19T04:10:44;100164.51;;;16.17;92.48
77482;BME280;66582;43.004;-75.010;2023-06-19T04:13:08;100174.11;;;13.95;97.25
77482;BME280;66582;43.004;-75.010;2023-06-19T04:15:33;100170.14;;;13.87;98.32
77482;BME280;66582;43.004;-75.010;2023-06-19T04:17:58;100174.81;;;11.45;100.00
77482;BME280;66582;43.004;-75.010;2023-06-19T04:20:23;100178.67;;;10.76;100.00
77482;BME280;66582;43.004;-75.010;2023-06-19T04:22:49;100171.83;;;10.76;100.00
77482;BME280;66582;43.004;-75.010;2023-06-19T04:25:13;100177.96;;;10.65;100.00
77482;BME280;66582;43.004;-75.010;2023-06-19T04:27:38;100180.67;;;11.69;100.00
77482;BME280;66582;43.004;-75.010;2023-06-19T04:30:04;100175.80;;;14.18;100.00
77482;BME280;66582;43.004;-75.010;2023-06-19T04:32:28;100182.14;;;11.38;100.00
77482;BME280;66582;43.004;-75.010;2023-06-19T04:34:54;100198.36;;;11.28;100.00
77482;BME280;66582;43.004;-75.010;2023-06-19T04:37:19;100198.08;;;11.45;100.00
77482;BME280;66582;43.004;-75.010;2023-06-19T04:39:44;100188.89;;;12.65;100.00
77482;BME280;66582;43.004;-75.010;2023-06-19T04:42:09;100185.93;;;11.74;100.00
77482;BME280;66582;43.004;-75.010;2023-06-19T04:44:35;100192.39;;;11.11;100.00
77482;BME280;66582;43.004;-75.010;2023-06-19T04:47:00;100190.39;;;11.38;100.00
77482;BME280;66582;43.004;-75.010;2023-06-19T04:49:25;100193.82;;;10.45;100.00
77482;BME280;66582;43.004;-75.010;2023-06-19T04:51:51;100194.55;;;10.26;100.00
77482;BME280;66582;43.004;-75.010;2023-06-19T04:54:15;100181.47;;;11.47;100.00
77482;BME280;66582;43.004;-75.010;2023-06-19T04:56:41;100172.11;;;13.66;100.00
77482;BME280;66582;43.004;-75.010;2023-06-19T04:59:06;100168.52;;;15.85;96.68
77482;BME280;66582;43.004;-75.010;2023-06-19T05:01:31;100185.88;;;11.76;100.00
77482;BME280;66582;43.004;-75.010;2023-06-19T05:03:56;100184.84;;;11.80;100.00
77482;BME280;66582;43.004;-75.010;2023-06-19T05:06:20;100189.31;;;11.10;100.00
77482;BME280;66582;43.004;-75.010;2023-06-19T05:08:46;100197.42;;;10.73;100.00
77482;BME280;66582;43.004;-75.010;2023-06-19T05:11:12;100185.75;;;11.38;100.00
77482;BME280;66582;43.004;-75.010;2023-06-19T05:13:37;100179.84;;;11.93;100.00
77482;BME280;66582;43.004;-75.010;2023-06-19T05:16:03;100174.81;;;13.62;100.00
77482;BME280;66582;43.004;-75.010;2023-06-19T05:18:27;100181.79;;;13.23;100.00
77482;BME280;66582;43.004;-75.010;2023-06-19T05:20:52;100182.62;;;13.05;100.00
77482;BME280;66582;43.004;-75.010;2023-06-19T05:23:17;100183.30;;;13.17;100.00
77482;BME280;66582;43.004;-75.010;2023-06-19T05:25:43;100182.09;;;15.65;96.15
77482;BME280;66582;43.004;-75.010;2023-06-19T05:28:08;100182.08;;;16.81;89.20
77482;BME280;66582;43.004;-75.010;2023-06-19T05:30:33;100193.30;;;14.17;94.33
77482;BME280;66582;43.004;-75.010;2023-06-19T05:32:59;100200.83;;;12.50;100.00
77482;BME280;66582;43.004;-75.010;2023-06-19T05:35:24;100215.65;;;11.06;100.00
77482;BME280;66582;43.004;-75.010;2023-06-19T05:37:49;100218.90;;;11.23;100.00
77482;BME280;66582;43.004;-75.010;2023-06-19T05:40:14;100217.25;;;14.65;100.00
77482;BME280;66582;43.004;-75.010;2023-06-19T05:42:40;100219.00;;;13.40;98.82
77482;BME280;66582;43.004;-75.010;2023-06-19T05:45:05;100230.33;;;10.10;100.00
77482;BME280;66582;43.004;-75.010;2023-06-19T05:47:29;100234.71;;;9.79;100.00
77482;BME280;66582;43.004;-75.010;2023-06-19T05:49:54;100231.95;;;11.67;100.00
77482;BME280;66582;43.004;-75.010;2023-06-19T05:52:19;100245.37;;;10.00;100.00
77482;BME280;66582;43.004;-75.010;2023-06-19T05:54:45;100239.80;;;12.97;100.00
77482;BME280;66582;43.004;-75.010;2023-06-19T05:57:10;100255.54;;;10.50;100.00
77482;BME280;66582;43.004;-75.010;2023-06-19T05:59:35;100264.09;;;10.58;100.00
77482;BME280;66582;43.004;-75.010;2023-06-19T06:02:02;100263.36;;;11.13;100.00
77482;BME280;66582;43.004;-75.010;2023-06-19T06:04:25;100264.05;;;10.92;100.00
77482;BME280;66582;43.004;-75.010;2023-06-19T06:06:50;100265.26;;;11.64;100.00
77482;BME280;66582;43.004;-75.010;2023-06-19T06:09:15;100261.38;;;12.21;100.00
77482;BME280;66582;43.004;-75.010;2023-06-19T06:11:41;100246.99;;;15.48;99.90
77482;BME280;66582;43.004;-75.010;2023-06-19T06:14:07;100251.88;;;12.05;100.00
77482;BME280;66582;43.004;-75.010;2023-06-19T06:16:32;100252.94;;;11.20;100.00
77482;BME280;66582;43.004;-75.010;2023-06-19T06:18:57;100246.08;;;13.86;100.00
77482;BME280;66582;43.004;-75.010;2023-06-19T06:21:22;100252.29;;;12.08;100.00
77482;BME280;66582;43.004;-75.010;2023-06-19T06:23:47;100252.52;;;11.23;100.00
77482;BME280;66582;43.004;-75.010;2023-06-19T06:26:12;100250.71;;;10.64;100.00
77482;BME280;66582;43.004;-75.010;2023-06-19T06:28:37;100245.44;;;11.03;100.00
77482;BME280;66582;43.004;-75.010;2023-06-19T06:31:03;100236.50;;;12.59;100.00
77482;BME280;66582;43.004;-75.010;2023-06-19T06:33:28;100245.34;;;10.91;100.00
77482;BME280;66582;43.004;-75.010;2023-06-19T06:35:55;100246.81;;;10.43;100.00
77482;BME280;66582;43.004;-75.010;2023-06-19T06:38:18;100245.15;;;11.60;100.00
77482;BME280;66582;43.004;-75.010;2023-06-19T06:40:43;100227.36;;;14.20;100.00
77482;BME280;66582;43.004;-75.010;2023-06-19T06:43:08;100223.03;;;13.82;100.00
77482;BME280;66582;43.004;-75.010;2023-06-19T06:45:33;100220.92;;;14.27;100.00
77482;BME280;66582;43.004;-75.010;2023-06-19T06:47:59;100230.00;;;13.19;100.00
77482;BME280;66582;43.004;-75.010;2023-06-19T06:50:25;100230.59;;;13.70;100.00
77482;BME280;66582;43.004;-75.010;2023-06-19T06:52:50;100231.63;;;13.26;100.00
77482;BME280;66582;43.004;-75.010;2023-06-19T06:55:15;100228.40;;;13.60;99.07
77482;BME280;66582;43.004;-75.010;2023-06-19T06:57:40;100241.65;;;10.48;100.00
77482;BME280;66582;43.004;-75.010;2023-06-19T07:00:07;100228.90;;;12.91;100.00
77482;BME280;66582;43.004;-75.010;2023-06-19T07:02:31;100237.96;;;13.10;100.00
77482;BME280;66582;43.004;-75.010;2023-06-19T07:04:56;100244.42;;;13.69;100.00
77482;BME280;66582;43.004;-75.010;2023-06-19T07:07:21;100246.88;;;11.70;100.00
77482;BME280;66582;43.004;-75.010;2023-06-19T07:09:46;100248.41;;;10.76;100.00
77482;BME280;66582;43.004;-75.010;2023-06-19T07:12:12;100254.36;;;10.27;100.00
77482;BME280;66582;43.004;-75.010;2023-06-19T07:14:36;100260.92;;;10.35;100.00
77482;BME280;66582;43.004;-75.010;2023-06-19T07:17:01;100255.60;;;12.33;100.00
77482;BME280;66582;43.004;-75.010;2023-06-19T07:19:26;100246.12;;;14.13;100.00
77482;BME280;66582;43.004;-75.010;2023-06-19T07:21:52;100246.87;;;14.97;94.32
77482;BME280;66582;43.004;-75.010;2023-06-19T07:24:18;100250.55;;;14.02;94.66
77482;BME280;66582;43.004;-75.010;2023-06-19T07:26:43;100255.02;;;13.91;98.45
77482;BME280;66582;43.004;-75.010;2023-06-19T07:29:09;100256.17;;;14.64;93.68
77482;BME280;66582;43.004;-75.010;2023-06-19T07:31:33;100242.66;;;16.33;85.38
77482;BME280;66582;43.004;-75.010;2023-06-19T07:33:59;100240.94;;;16.76;82.42
77482;BME280;66582;43.004;-75.010;2023-06-19T07:36:24;100253.54;;;12.32;99.43
77482;BME280;66582;43.004;-75.010;2023-06-19T07:38:49;100268.64;;;10.30;100.00
77482;BME280;66582;43.004;-75.010;2023-06-19T07:41:14;100263.36;;;9.88;100.00
77482;BME280;66582;43.004;-75.010;2023-06-19T07:43:39;100264.65;;;9.86;100.00
77482;BME280;66582;43.004;-75.010;2023-06-19T07:46:04;100263.97;;;12.57;100.00
77482;BME280;66582;43.004;-75.010;2023-06-19T07:48:29;100262.41;;;11.64;100.00
77482;BME280;66582;43.004;-75.010;2023-06-19T07:50:54;100269.32;;;9.33;100.00
77482;BME280;66582;43.004;-75.010;2023-06-19T07:53:19;100262.82;;;11.30;100.00
77482;BME280;66582;43.004;-75.010;2023-06-19T07:55:44;100262.50;;;13.86;98.55
77482;BME280;66582;43.004;-75.010;2023-06-19T07:58:10;100265.18;;;13.78;96.32
77482;BME280;66582;43.004;-75.010;2023-06-19T08:00:35;100267.02;;;14.34;94.90
77482;BME280;66582;43.004;-75.010;2023-06-19T08:03:00;100278.72;;;11.77;100.00
77482;BME280;66582;43.004;-75.010;2023-06-19T08:05:25;100284.08;;;10.09;100.00
77482;BME280;66582;43.004;-75.010;2023-06-19T08:07:50;100274.74;;;11.42;100.00
77482;BME280;66582;43.004;-75.010;2023-06-19T08:10:16;100278.50;;;10.56;100.00
77482;BME280;66582;43.004;-75.010;2023-06-19T08:12:42;100280.19;;;12.71;100.00
77482;BME280;66582;43.004;-75.010;2023-06-19T08:15:07;100281.35;;;13.08;100.00
77482;BME280;66582;43.004;-75.010;2023-06-19T08:17:32;100296.14;;;9.74;100.00
77482;BME280;66582;43.004;-75.010;2023-06-19T08:19:57;100297.29;;;10.64;100.00
77482;BME280;66582;43.004;-75.010;2023-06-19T08:22:21;100288.81;;;13.12;100.00
77482;BME280;66582;43.004;-75.010;2023-06-19T08:24:47;100297.08;;;10.00;100.00
77482;BME280;66582;43.004;-75.010;2023-06-19T08:27:14;100305.73;;;8.71;100.00
77482;BME280;66582;43.004;-75.010;2023-06-19T08:29:38;100300.82;;;10.39;100.00
77482;BME280;66582;43.004;-75.010;2023-06-19T08:32:03;100304.80;;;8.97;100.00
77482;BME280;66582;43.004;-75.010;2023-06-19T08:34:28;100303.91;;;9.32;100.00
77482;BME280;66582;43.004;-75.010;2023-06-19T08:36:53;100307.87;;;8.25;100.00
77482;BME280;66582;43.004;-75.010;2023-06-19T08:39:18;100302.78;;;9.32;100.00
77482;BME280;66582;43.004;-75.010;2023-06-19T08:41:43;100304.07;;;9.34;100.00
77482;BME280;66582;43.004;-75.010;2023-06-19T08:44:09;100306.60;;;9.05;100.00
77482;BME280;66582;43.004;-75.010;2023-06-19T08:46:34;100310.08;;;8.72;100.00
77482;BME280;66582;43.004;-75.010;2023-06-19T08:48:59;100311.69;;;9.65;100.00
77482;BME280;66582;43.004;-75.010;2023-06-19T08:51:24;100317.18;;;9.23;100.00
77482;BME280;66582;43.004;-75.010;2023-06-19T08:53:53;100313.68;;;9.00;100.00
77482;BME280;66582;43.004;-75.010;2023-06-19T08:56:15;100314.20;;;8.79;100.00
77482;BME280;66582;43.004;-75.010;2023-06-19T08:58:40;100310.47;;;8.96;100.00
77482;BME280;66582;43.004;-75.010;2023-06-19T09:01:05;100302.34;;;9.58;100.00
77482;BME280;66582;43.004;-75.010;2023-06-19T09:03:31;100304.12;;;9.27;100.00
77482;BME280;66582;43.004;-75.010;2023-06-19T09:05:59;100306.76;;;11.59;100.00
77482;BME280;66582;43.004;-75.010;2023-06-19T09:08:22;100306.00;;;12.94;100.00
77482;BME280;66582;43.004;-75.010;2023-06-19T09:10:54;100319.77;;;11.77;100.00
77482;BME280;66582;43.004;-75.010;2023-06-19T09:13:11;100324.27;;;10.64;100.00
77482;BME280;66582;43.004;-75.010;2023-06-19T09:15:37;100322.94;;;9.99;100.00
77482;BME280;66582;43.004;-75.010;2023-06-19T09:18:04;100327.41;;;9.67;100.00
77482;BME280;66582;43.004;-75.010;2023-06-19T09:20:27;100341.23;;;8.06;100.00
77482;BME280;66582;43.004;-75.010;2023-06-19T09:22:55;100338.89;;;10.05;100.00
77482;BME280;66582;43.004;-75.010;2023-06-19T09:25:17;100335.35;;;9.64;100.00
77482;BME280;66582;43.004;-75.010;2023-06-19T09:27:43;100323.57;;;12.58;100.00
77482;BME280;66582;43.004;-75.010;2023-06-19T09:30:14;100330.84;;;12.97;100.00
77482;BME280;66582;43.004;-75.010;2023-06-19T09:32:34;100336.31;;;14.29;96.62
77482;BME280;66582;43.004;-75.010;2023-06-19T09:34:58;100342.17;;;12.90;95.52
77482;BME280;66582;43.004;-75.010;2023-06-19T09:37:25;100348.12;;;11.47;100.00
77482;BME280;66582;43.004;-75.010;2023-06-19T09:39:53;100355.56;;;9.35;100.00
77482;BME280;66582;43.004;-75.010;2023-06-19T09:42:15;100353.04;;;10.85;100.00
77482;BME280;66582;43.004;-75.010;2023-06-19T09:44:41;100360.19;;;9.79;100.00
77482;BME280;66582;43.004;-75.010;2023-06-19T09:47:10;100362.37;;;9.80;100.00
77482;BME280;66582;43.004;-75.010;2023-06-19T09:49:33;100356.03;;;9.76;100.00
77482;BME280;66582;43.004;-75.010;2023-06-19T09:51:55;100358.73;;;10.07;100.00
77482;BME280;66582;43.004;-75.010;2023-06-19T09:54:20;100360.47;;;10.69;100.00
77482;BME280;66582;43.004;-75.010;2023-06-19T09:56:45;100365.35;;;9.55;100.00
77482;BME280;66582;43.004;-75.010;2023-06-19T09:59:11;100364.66;;;8.88;100.00
77482;BME280;66582;43.004;-75.010;2023-06-19T10:01:36;100371.18;;;8.70;100.00
77482;BME280;66582;43.004;-75.010;2023-06-19T10:04:05;100376.53;;;8.69;100.00
77482;BME280;66582;43.004;-75.010;2023-06-19T10:06:26;100383.00;;;8.29;100.00
77482;BME280;66582;43.004;-75.010;2023-06-19T10:08:51;100384.75;;;8.28;100.00
77482;BME280;66582;43.004;-75.010;2023-06-19T10:11:16;100383.89;;;9.20;100.00
77482;BME280;66582;43.004;-75.010;2023-06-19T10:13:42;100374.08;;;12.31;100.00
77482;BME280;66582;43.004;-75.010;2023-06-19T10:16:08;100377.39;;;11.10;100.00
77482;BME280;66582;43.004;-75.010;2023-06-19T10:18:43;100387.83;;;11.65;100.00
77482;BME280;66582;43.004;-75.010;2023-06-19T10:20:57;100380.29;;;13.35;100.00
77482;BME280;66582;43.004;-75.010;2023-06-19T10:23:23;100390.72;;;13.50;100.00
77482;BME280;66582;43.004;-75.010;2023-06-19T10:25:54;100406.89;;;10.21;100.00
77482;BME280;66582;43.004;-75.010;2023-06-19T10:28:18;100414.79;;;8.87;100.00
77482;BME280;66582;43.004;-75.010;2023-06-19T10:30:38;100411.31;;;9.44;100.00
77482;BME280;66582;43.004;-75.010;2023-06-19T10:33:03;100410.27;;;9.82;100.00
77482;BME280;66582;43.004;-75.010;2023-06-19T10:35:28;100408.19;;;10.70;100.00
77482;BME280;66582;43.004;-75.010;2023-06-19T10:37:53;100404.80;;;11.44;100.00
77482;BME280;66582;43.004;-75.010;2023-06-19T10:40:18;100411.75;;;10.25;100.00
77482;BME280;66582;43.004;-75.010;2023-06-19T10:42:44;100416.48;;;10.05;100.00
77482;BME280;66582;43.004;-75.010;2023-06-19T10:45:11;100413.36;;;11.03;100.00
77482;BME280;66582;43.004;-75.010;2023-06-19T10:47:34;100410.53;;;12.48;100.00
77482;BME280;66582;43.004;-75.010;2023-06-19T10:49:59;100409.42;;;13.01;99.81
77482;BME280;66582;43.004;-75.010;2023-06-19T10:52:24;100415.48;;;11.32;100.00
77482;BME280;66582;43.004;-75.010;2023-06-19T10:54:54;100418.55;;;9.78;100.00
77482;BME280;66582;43.004;-75.010;2023-06-19T10:57:15;100424.75;;;9.64;100.00
77482;BME280;66582;43.004;-75.010;2023-06-19T10:59:39;100418.89;;;9.98;100.00
77482;BME280;66582;43.004;-75.010;2023-06-19T11:02:05;100419.38;;;9.72;100.00
77482;BME280;66582;43.004;-75.010;2023-06-19T11:04:30;100407.46;;;10.91;100.00
77482;BME280;66582;43.004;-75.010;2023-06-19T11:06:55;100404.14;;;12.61;100.00
77482;BME280;66582;43.004;-75.010;2023-06-19T11:09:21;100407.38;;;12.14;100.00
77482;BME280;66582;43.004;-75.010;2023-06-19T11:11:47;100407.96;;;11.38;100.00
77482;BME280;66582;43.004;-75.010;2023-06-19T11:14:14;100398.59;;;12.76;100.00
77482;BME280;66582;43.004;-75.010;2023-06-19T11:16:40;100411.29;;;11.38;100.00
77482;BME280;66582;43.004;-75.010;2023-06-19T11:19:02;100405.03;;;13.79;100.00
77482;BME280;66582;43.004;-75.010;2023-06-19T11:21:31;100398.54;;;16.15;95.05
77482;BME280;66582;43.004;-75.010;2023-06-19T11:23:52;100400.54;;;15.40;93.58
77482;BME280;66582;43.004;-75.010;2023-06-19T11:26:17;100409.57;;;15.34;94.76
77482;BME280;66582;43.004;-75.010;2023-06-19T11:28:48;100405.26;;;16.00;92.25
77482;BME280;66582;43.004;-75.010;2023-06-19T11:31:07;100394.37;;;17.08;89.76
77482;BME280;66582;43.004;-75.010;2023-06-19T11:33:33;100395.42;;;17.18;83.20
77482;BME280;66582;43.004;-75.010;2023-06-19T11:36:01;100392.61;;;16.80;87.03
77482;BME280;66582;43.004;-75.010;2023-06-19T11:38:24;100388.39;;;17.75;80.35
77482;BME280;66582;43.004;-75.010;2023-06-19T11:40:49;100404.70;;;15.15;91.17
77482;BME280;66582;43.004;-75.010;2023-06-19T11:43:23;100397.09;;;17.23;84.02
77482;BME280;66582;43.004;-75.010;2023-06-19T11:45:48;100397.23;;;18.63;79.08
77482;BME280;66582;43.004;-75.010;2023-06-19T11:48:06;100397.57;;;18.77;77.25
77482;BME280;66582;43.004;-75.010;2023-06-19T11:50:29;100400.32;;;18.76;76.84
77482;BME280;66582;43.004;-75.010;2023-06-19T11:52:54;100396.81;;;19.13;74.53
77482;BME280;66582;43.004;-75.010;2023-06-19T11:55:19;100397.11;;;18.78;75.97
77482;BME280;66582;43.004;-75.010;2023-06-19T11:57:45;100397.45;;;19.12;74.30
77482;BME280;66582;43.004;-75.010;2023-06-19T12:00:16;100399.17;;;19.25;72.04
77482;BME280;66582;43.004;-75.010;2023-06-19T12:02:35;100397.51;;;19.86;70.49
77482;BME280;66582;43.004;-75.010;2023-06-19T12:05:01;100397.91;;;19.19;73.66
77482;BME280;66582;43.004;-75.010;2023-06-19T12:07:27;100403.45;;;18.29;79.31
77482;BME280;66582;43.004;-75.010;2023-06-19T12:09:52;100399.95;;;18.40;78.50
77482;BME280;66582;43.004;-75.010;2023-06-19T12:12:16;100397.19;;;19.66;74.15
77482;BME280;66582;43.004;-75.010;2023-06-19T12:14:42;100384.08;;;20.74;68.27